Riverside Flight Center

METAR

KRVS 261653Z 16007KT 130V200 10SM FEW023 SCT033 OVC040 27/21 A3010 RMK AO2 SLP195 T02720206

TAF

TAF KRVS 261720Z 2618/2718 10006KT P6SM SCT015 BKN035 FM262000 16012G20KT P6SM BKN040 FM270100 17008KT P6SM BKN250 PROB30 2708/2712 4SM -TSRA BKN040CB FM271400 18014G22KT P6SM SCT030 BKN120